Time;durP1;ratioP1;P1;durP2;ratioP2;P2;SDS_P1;SDS_P2;PMS_P1;PMS_P2;Temp;Humidity;BMP_temperature;BMP_pressure;BME280_temperature;BME280_humidity;BME280_pressure;Samples;Min_cycle;Max_cycle;Signal;HPM_P1;HPM_P2
2023/05/20 00:00:28;;;;;;;4.35;1.42;;;;;;;;;;5032368;28;20026;-71
2023/05/20 00:02:56;;;;;;;3.65;1.02;;;;;;;;;;5028492;28;20056;-71
2023/05/20 00:05:22;;;;;;;6.72;1.40;;;;;;;;;;5033299;28;20377;-71
2023/05/20 00:07:48;;;;;;;7.25;1.80;;;;;;;;;;5033324;28;20089;-70
2023/05/20 00:10:14;;;;;;;5.78;1.90;;;;;;;;;;5033675;28;20022;-72
2023/05/20 00:12:40;;;;;;;4.82;1.30;;;;;;;;;;5033529;28;20021;-70
2023/05/20 00:15:06;;;;;;;4.18;1.10;;;;;;;;;;5034082;28;20518;-70
2023/05/20 00:17:32;;;;;;;5.07;1.45;;;;;;;;;;5033021;28;20022;-71
2023/05/20 00:20:01;;;;;;;3.60;1.60;;;;;;;;;;5034044;28;20379;-70
2023/05/20 00:22:27;;;;;;;2.78;1.30;;;;;;;;;;5033157;28;20399;-69
2023/05/20 00:24:53;;;;;;;4.13;1.70;;;;;;;;;;5033520;28;20029;-71
2023/05/20 00:27:19;;;;;;;8.02;1.40;;;;;;;;;;5033271;28;20501;-70
2023/05/20 00:29:45;;;;;;;3.58;1.38;;;;;;;;;;5033244;28;20104;-71
2023/05/20 00:32:11;;;;;;;3.10;1.60;;;;;;;;;;5033044;28;20104;-70
2023/05/20 00:34:37;;;;;;;4.95;1.30;;;;;;;;;;5033262;28;20104;-72
2023/05/20 00:37:03;;;;;;;4.28;1.40;;;;;;;;;;5033124;28;20147;-71
2023/05/20 00:39:29;;;;;;;2.50;1.42;;;;;;;;;;5031978;28;20034;-71
2023/05/20 00:41:59;;;;;;;2.22;1.20;;;;;;;;;;5032961;28;20094;-70
2023/05/20 00:44:25;;;;;;;4.40;1.23;;;;;;;;;;5033058;28;20033;-72
2023/05/20 00:46:52;;;;;;;4.60;1.58;;;;;;;;;;5033065;28;20057;-70
2023/05/20 00:49:18;;;;;;;5.65;1.40;;;;;;;;;;5032876;28;20498;-72
2023/05/20 00:51:44;;;;;;;8.93;1.40;;;;;;;;;;5032736;28;20030;-70
2023/05/20 00:54:10;;;;;;;4.57;1.30;;;;;;;;;;5032777;28;20032;-72
2023/05/20 00:56:36;;;;;;;6.20;1.50;;;;;;;;;;5033331;28;20419;-70
2023/05/20 00:59:02;;;;;;;3.67;1.55;;;;;;;;;;5034752;28;20018;-71
2023/05/20 01:01:28;;;;;;;5.03;1.55;;;;;;;;;;5034502;28;20052;-73
2023/05/20 01:03:54;;;;;;;5.70;1.50;;;;;;;;;;5033974;28;20368;-71
2023/05/20 01:06:20;;;;;;;3.47;1.20;;;;;;;;;;5033645;28;20092;-70
2023/05/20 01:08:46;;;;;;;4.97;1.63;;;;;;;;;;5032513;28;20398;-69
2023/05/20 01:11:15;;;;;;;6.25;1.60;;;;;;;;;;5032415;28;20026;-71
2023/05/20 01:13:44;;;;;;;5.13;1.20;;;;;;;;;;5032300;28;20029;-70
2023/05/20 01:16:11;;;;;;;8.18;1.40;;;;;;;;;;5031836;28;20029;-71
2023/05/20 01:18:39;;;;;;;3.47;1.60;;;;;;;;;;5032395;28;20108;-70
2023/05/20 01:21:07;;;;;;;5.00;1.45;;;;;;;;;;5032229;28;20430;-72
2023/05/20 01:23:43;;;;;;;5.47;1.40;;;;;;;;;;5032137;28;20447;-72
2023/05/20 01:26:12;;;;;;;6.72;1.55;;;;;;;;;;5032168;28;20033;-71
2023/05/20 01:28:38;;;;;;;6.78;1.88;;;;;;;;;;5032465;28;20037;-70
2023/05/20 01:31:05;;;;;;;5.50;1.50;;;;;;;;;;5032484;28;20021;-71
2023/05/20 01:33:31;;;;;;;7.07;1.70;;;;;;;;;;5031824;28;20399;-71
2023/05/20 01:35:58;;;;;;;8.90;1.65;;;;;;;;;;5032155;28;20357;-70
2023/05/20 01:38:24;;;;;;;6.85;1.73;;;;;;;;;;5033583;28;20448;-70
2023/05/20 01:40:50;;;;;;;9.20;1.73;;;;;;;;;;5034149;28;20033;-70
2023/05/20 01:43:17;;;;;;;3.15;1.60;;;;;;;;;;5031147;28;20036;-71
2023/05/20 01:45:43;;;;;;;10.13;2.10;;;;;;;;;;5031943;28;20055;-71
2023/05/20 01:48:12;;;;;;;8.77;1.75;;;;;;;;;;5031941;28;20479;-70
2023/05/20 01:50:39;;;;;;;4.93;1.80;;;;;;;;;;5031508;28;20029;-71
2023/05/20 01:53:07;;;;;;;8.80;1.83;;;;;;;;;;5031091;28;20025;-73
2023/05/20 01:55:33;;;;;;;5.25;2.00;;;;;;;;;;5030989;28;20021;-70
2023/05/20 01:57:59;;;;;;;7.50;1.85;;;;;;;;;;5030870;28;20028;-71
2023/05/20 02:00:25;;;;;;;7.25;1.60;;;;;;;;;;5030663;28;20028;-70
2023/05/20 02:02:51;;;;;;;6.38;2.05;;;;;;;;;;5030669;28;20025;-71
2023/05/20 02:05:17;;;;;;;8.15;2.17;;;;;;;;;;5030719;28;20088;-72
2023/05/20 02:07:43;;;;;;;10.73;1.95;;;;;;;;;;5030484;28;20325;-71
2023/05/20 02:10:09;;;;;;;7.50;1.63;;;;;;;;;;5030579;28;20433;-72
2023/05/20 02:12:35;;;;;;;10.95;1.70;;;;;;;;;;5030320;28;20030;-71
2023/05/20 02:15:01;;;;;;;6.18;1.73;;;;;;;;;;5034663;28;20030;-71
2023/05/20 02:17:27;;;;;;;5.20;1.80;;;;;;;;;;5038003;28;20021;-72
2023/05/20 02:19:53;;;;;;;7.75;2.00;;;;;;;;;;5032321;28;20030;-71
2023/05/20 02:22:19;;;;;;;7.40;1.80;;;;;;;;;;5033852;28;20037;-72
2023/05/20 02:24:45;;;;;;;5.18;1.92;;;;;;;;;;5031895;28;20025;-70
2023/05/20 02:27:11;;;;;;;8.27;2.20;;;;;;;;;;5032485;28;20079;-70
2023/05/20 02:29:37;;;;;;;8.82;2.47;;;;;;;;;;5030535;28;20465;-69
2023/05/20 02:32:03;;;;;;;6.88;2.20;;;;;;;;;;5030299;28;20036;-71
2023/05/20 02:34:30;;;;;;;4.88;1.90;;;;;;;;;;5030360;28;20395;-69
2023/05/20 02:36:56;;;;;;;9.68;1.88;;;;;;;;;;5030342;28;20471;-71
2023/05/20 02:39:22;;;;;;;8.57;1.60;;;;;;;;;;5030426;28;20030;-71
2023/05/20 02:41:48;;;;;;;9.73;2.25;;;;;;;;;;5030152;28;20021;-70
2023/05/20 02:44:15;;;;;;;6.63;2.30;;;;;;;;;;5030243;28;20387;-71
2023/05/20 02:46:41;;;;;;;7.97;2.22;;;;;;;;;;5030374;28;20025;-71
2023/05/20 02:49:07;;;;;;;10.75;2.10;;;;;;;;;;5030079;28;20541;-71
2023/05/20 02:51:33;;;;;;;5.40;1.63;;;;;;;;;;5030140;28;20032;-71
2023/05/20 02:53:59;;;;;;;6.28;1.80;;;;;;;;;;5030463;28;20368;-71
2023/05/20 02:56:25;;;;;;;6.70;1.88;;;;;;;;;;5032069;28;20018;-71
2023/05/20 02:58:52;;;;;;;8.40;1.85;;;;;;;;;;5035897;28;20029;-72
2023/05/20 03:01:18;;;;;;;8.43;2.00;;;;;;;;;;5030515;28;20025;-72
2023/05/20 03:03:44;;;;;;;5.78;1.80;;;;;;;;;;5036527;28;20530;-72
2023/05/20 03:06:10;;;;;;;7.72;2.00;;;;;;;;;;5040764;28;20033;-71
2023/05/20 03:08:36;;;;;;;9.13;1.92;;;;;;;;;;5041550;28;20035;-72
2023/05/20 03:11:02;;;;;;;5.88;1.77;;;;;;;;;;5036440;28;20029;-70
2023/05/20 03:13:28;;;;;;;6.65;1.80;;;;;;;;;;5033382;28;20080;-71
2023/05/20 03:15:54;;;;;;;5.78;1.75;;;;;;;;;;5033806;28;20032;-71
2023/05/20 03:18:20;;;;;;;5.88;2.05;;;;;;;;;;5033702;28;20025;-71
2023/05/20 03:20:46;;;;;;;8.57;2.15;;;;;;;;;;5033800;28;20036;-71
2023/05/20 03:23:13;;;;;;;4.40;1.80;;;;;;;;;;5031363;28;20530;-71
2023/05/20 03:25:39;;;;;;;8.48;1.80;;;;;;;;;;5034039;28;20067;-70
2023/05/20 03:28:05;;;;;;;8.48;1.80;;;;;;;;;;5037849;28;20072;-70
2023/05/20 03:30:32;;;;;;;6.28;1.90;;;;;;;;;;5034577;28;20083;-71
2023/05/20 03:32:58;;;;;;;5.57;1.80;;;;;;;;;;5033242;28;20368;-73
2023/05/20 03:35:24;;;;;;;7.95;1.88;;;;;;;;;;5033559;28;20022;-71
2023/05/20 03:37:52;;;;;;;11.50;2.20;;;;;;;;;;5034650;28;20022;-71
2023/05/20 03:40:19;;;;;;;7.15;2.08;;;;;;;;;;5034096;28;20384;-71
2023/05/20 03:42:45;;;;;;;8.43;1.85;;;;;;;;;;5033905;28;20472;-71
2023/05/20 03:45:11;;;;;;;8.05;2.08;;;;;;;;;;5034191;28;20392;-70
2023/05/20 03:47:37;;;;;;;6.90;2.70;;;;;;;;;;5033858;28;20376;-71
2023/05/20 03:50:03;;;;;;;5.72;2.08;;;;;;;;;;5033434;28;20083;-71
2023/05/20 03:52:29;;;;;;;8.13;1.90;;;;;;;;;;5033642;28;20037;-71
2023/05/20 03:54:56;;;;;;;9.73;2.22;;;;;;;;;;5034440;28;20025;-70
2023/05/20 03:57:22;;;;;;;6.60;1.88;;;;;;;;;;5034334;28;20021;-71
2023/05/20 03:59:48;;;;;;;6.60;2.08;;;;;;;;;;5034222;28;20031;-70
2023/05/20 04:02:14;;;;;;;8.77;2.53;;;;;;;;;;5033710;28;20492;-70
2023/05/20 04:04:42;;;;;;;7.05;2.30;;;;;;;;;;5033717;28;20021;-71
2023/05/20 04:07:08;;;;;;;9.10;3.35;;;;;;;;;;5033731;28;20022;-70
2023/05/20 04:09:34;;;;;;;10.90;2.40;;;;;;;;;;5032613;28;20033;-70
2023/05/20 04:12:00;;;;;;;7.50;2.50;;;;;;;;;;5033400;28;20031;-70
2023/05/20 04:14:26;;;;;;;8.25;2.10;;;;;;;;;;5033191;28;20029;-69
2023/05/20 04:16:52;;;;;;;9.27;2.53;;;;;;;;;;5033726;28;20337;-70
2023/05/20 04:19:18;;;;;;;6.50;1.95;;;;;;;;;;5033784;28;20032;-70
2023/05/20 04:21:45;;;;;;;8.18;2.33;;;;;;;;;;5033391;28;20503;-72
2023/05/20 04:24:11;;;;;;;8.45;2.05;;;;;;;;;;5033514;28;20061;-70
2023/05/20 04:26:37;;;;;;;7.82;2.22;;;;;;;;;;5033309;28;20021;-71
2023/05/20 04:29:03;;;;;;;8.55;1.92;;;;;;;;;;5033438;28;20026;-70
2023/05/20 04:31:30;;;;;;;13.57;2.30;;;;;;;;;;5033135;28;20105;-70
2023/05/20 04:33:56;;;;;;;13.13;2.10;;;;;;;;;;5032980;28;20383;-69
2023/05/20 04:36:27;;;;;;;7.85;2.00;;;;;;;;;;5033059;28;20068;-70
2023/05/20 04:38:53;;;;;;;9.02;1.95;;;;;;;;;;5033007;28;20383;-70
2023/05/20 04:41:19;;;;;;;9.30;2.13;;;;;;;;;;5033032;28;20036;-71
2023/05/20 04:43:45;;;;;;;10.57;2.40;;;;;;;;;;5032711;28;20025;-71
2023/05/20 04:46:11;;;;;;;8.75;2.47;;;;;;;;;;5032777;28;20100;-72
2023/05/20 04:48:37;;;;;;;8.10;2.05;;;;;;;;;;5032860;28;20025;-72
2023/05/20 04:51:03;;;;;;;14.95;2.85;;;;;;;;;;5032400;28;20438;-71
2023/05/20 04:53:29;;;;;;;7.53;1.98;;;;;;;;;;5032369;28;20056;-72
2023/05/20 04:55:55;;;;;;;10.90;2.35;;;;;;;;;;5032613;28;20064;-72
2023/05/20 04:58:23;;;;;;;10.52;3.17;;;;;;;;;;5032511;28;20079;-70
2023/05/20 05:00:49;;;;;;;9.73;2.47;;;;;;;;;;5032411;28;20538;-72
2023/05/20 05:03:15;;;;;;;10.60;2.50;;;;;;;;;;5032519;28;20045;-72
2023/05/20 05:05:41;;;;;;;10.85;2.58;;;;;;;;;;5032921;28;20029;-72
2023/05/20 05:08:08;;;;;;;7.65;2.00;;;;;;;;;;5033770;28;20112;-72
2023/05/20 05:10:35;;;;;;;7.22;2.33;;;;;;;;;;5034449;28;20021;-71
2023/05/20 05:13:01;;;;;;;8.95;2.50;;;;;;;;;;5034681;28;20036;-72
2023/05/20 05:15:27;;;;;;;12.55;2.75;;;;;;;;;;5034219;28;20025;-71
2023/05/20 05:17:53;;;;;;;9.63;2.33;;;;;;;;;;5033099;28;20033;-72
2023/05/20 05:20:20;;;;;;;7.50;2.10;;;;;;;;;;5034035;28;20029;-72
2023/05/20 05:22:46;;;;;;;11.93;2.22;;;;;;;;;;5032222;28;20133;-72
2023/05/20 05:25:12;;;;;;;11.85;2.05;;;;;;;;;;5032704;28;20404;-72
2023/05/20 05:27:39;;;;;;;13.00;2.83;;;;;;;;;;5033993;28;20027;-72
2023/05/20 05:30:06;;;;;;;7.97;2.03;;;;;;;;;;5034556;28;20104;-73
2023/05/20 05:32:32;;;;;;;11.85;2.67;;;;;;;;;;5032344;28;20108;-71
2023/05/20 05:34:58;;;;;;;14.63;2.03;;;;;;;;;;5032196;28;20113;-71
2023/05/20 05:37:24;;;;;;;11.23;2.70;;;;;;;;;;5025920;28;20033;-71
2023/05/20 05:39:50;;;;;;;12.27;2.45;;;;;;;;;;5031692;28;20052;-70
2023/05/20 05:42:16;;;;;;;10.57;2.00;;;;;;;;;;5031585;28;20173;-71
2023/05/20 05:44:43;;;;;;;16.92;2.78;;;;;;;;;;5031819;28;20076;-69
2023/05/20 05:47:09;;;;;;;17.63;2.58;;;;;;;;;;5025308;28;20122;-72
2023/05/20 05:49:35;;;;;;;9.00;2.83;;;;;;;;;;5024412;28;20025;-70
2023/05/20 05:52:01;;;;;;;12.50;2.63;;;;;;;;;;5030746;28;20033;-71
2023/05/20 05:54:27;;;;;;;10.70;2.60;;;;;;;;;;5031527;28;20043;-71
2023/05/20 05:56:55;;;;;;;9.27;2.42;;;;;;;;;;5027475;28;20021;-70
2023/05/20 05:59:21;;;;;;;8.02;2.33;;;;;;;;;;5031625;28;20079;-71
2023/05/20 06:01:47;;;;;;;10.32;2.60;;;;;;;;;;5031382;28;20094;-71
2023/05/20 06:04:13;;;;;;;9.13;2.42;;;;;;;;;;5031805;28;20026;-72
2023/05/20 06:06:40;;;;;;;9.77;2.40;;;;;;;;;;5030780;28;20483;-70
2023/05/20 06:09:06;;;;;;;13.38;2.47;;;;;;;;;;5031410;28;20033;-70
2023/05/20 06:11:32;;;;;;;11.57;2.15;;;;;;;;;;5031375;28;20036;-71
2023/05/20 06:13:59;;;;;;;9.55;2.63;;;;;;;;;;5031128;28;20040;-71
2023/05/20 06:16:25;;;;;;;9.00;2.35;;;;;;;;;;5031367;28;20394;-71
2023/05/20 06:18:52;;;;;;;9.98;2.60;;;;;;;;;;5030645;28;20026;-71
2023/05/20 06:21:18;;;;;;;19.67;2.92;;;;;;;;;;5031430;28;20035;-71
2023/05/20 06:23:44;;;;;;;11.43;2.45;;;;;;;;;;5031562;28;20025;-69
2023/05/20 06:26:10;;;;;;;11.07;2.25;;;;;;;;;;5031399;28;20053;-71
2023/05/20 06:28:36;;;;;;;9.95;2.25;;;;;;;;;;5031779;28;20492;-71
2023/05/20 06:31:02;;;;;;;13.20;2.95;;;;;;;;;;5031413;28;20040;-71
2023/05/20 06:33:28;;;;;;;10.45;2.50;;;;;;;;;;5031052;28;20126;-70
2023/05/20 06:35:55;;;;;;;7.72;2.30;;;;;;;;;;5031239;28;20514;-70
2023/05/20 06:38:21;;;;;;;15.05;3.00;;;;;;;;;;5035289;28;20051;-70
2023/05/20 06:40:48;;;;;;;18.05;3.53;;;;;;;;;;5035216;28;20356;-71
2023/05/20 06:43:14;;;;;;;6.03;1.95;;;;;;;;;;5034823;28;20028;-72
2023/05/20 06:45:40;;;;;;;11.55;2.05;;;;;;;;;;5035218;28;20502;-72
2023/05/20 06:48:06;;;;;;;7.82;2.10;;;;;;;;;;5034530;28;20033;-70
2023/05/20 06:50:32;;;;;;;10.15;2.35;;;;;;;;;;5035049;28;20025;-70
2023/05/20 06:52:58;;;;;;;12.85;2.83;;;;;;;;;;5034817;28;20036;-71
2023/05/20 06:55:25;;;;;;;12.73;2.65;;;;;;;;;;5035000;28;20108;-69
2023/05/20 06:57:51;;;;;;;15.38;2.55;;;;;;;;;;5034779;28;20071;-71
2023/05/20 07:00:17;;;;;;;8.82;2.47;;;;;;;;;;5034959;28;20041;-72
2023/05/20 07:02:43;;;;;;;9.65;2.88;;;;;;;;;;5034777;28;20022;-71
2023/05/20 07:05:09;;;;;;;15.77;3.22;;;;;;;;;;5034822;28;20025;-70
2023/05/20 07:07:35;;;;;;;9.43;2.63;;;;;;;;;;5034454;28;20075;-70
2023/05/20 07:10:04;;;;;;;8.07;2.33;;;;;;;;;;5035052;28;20075;-72
2023/05/20 07:12:30;;;;;;;10.57;2.70;;;;;;;;;;5034321;28;20069;-71
2023/05/20 07:14:56;;;;;;;5.97;2.70;;;;;;;;;;5034345;28;20394;-71
2023/05/20 07:17:22;;;;;;;8.55;2.80;;;;;;;;;;5031916;28;20033;-71
2023/05/20 07:19:48;;;;;;;7.65;2.70;;;;;;;;;;5034531;28;20049;-71
2023/05/20 07:22:14;;;;;;;9.13;2.55;;;;;;;;;;5034182;28;20021;-72
2023/05/20 07:24:40;;;;;;;13.98;3.35;;;;;;;;;;5034553;28;20452;-71
2023/05/20 07:27:06;;;;;;;15.65;2.25;;;;;;;;;;5034477;28;20030;-71
2023/05/20 07:29:32;;;;;;;9.65;2.72;;;;;;;;;;5034255;28;20040;-70
2023/05/20 07:31:58;;;;;;;8.23;2.90;;;;;;;;;;5034159;28;20037;-70
2023/05/20 07:34:24;;;;;;;11.52;2.63;;;;;;;;;;5034307;28;20479;-71
2023/05/20 07:36:50;;;;;;;17.90;3.00;;;;;;;;;;5034130;28;20025;-70
2023/05/20 07:39:16;;;;;;;12.23;2.80;;;;;;;;;;5033916;28;20037;-70
2023/05/20 07:41:42;;;;;;;12.05;2.45;;;;;;;;;;5034187;28;20115;-71
2023/05/20 07:44:10;;;;;;;8.77;2.88;;;;;;;;;;5034590;28;20021;-72
2023/05/20 07:46:37;;;;;;;8.13;2.35;;;;;;;;;;5034173;28;20033;-72
2023/05/20 07:49:03;;;;;;;13.85;2.78;;;;;;;;;;5033333;28;20033;-70
2023/05/20 07:51:29;;;;;;;11.27;2.83;;;;;;;;;;5034364;28;20025;-72
2023/05/20 07:53:55;;;;;;;11.27;2.60;;;;;;;;;;5033507;28;20355;-71
2023/05/20 07:56:21;;;;;;;10.65;2.90;;;;;;;;;;5034280;28;20014;-69
2023/05/20 07:58:54;;;;;;;8.90;2.38;;;;;;;;;;5033859;28;20030;-71
2023/05/20 08:01:21;;;;;;;7.97;2.63;;;;;;;;;;5033664;28;20028;-72
2023/05/20 08:03:47;;;;;;;10.43;3.50;;;;;;;;;;5033687;28;20036;-71
2023/05/20 08:06:13;;;;;;;11.40;2.67;;;;;;;;;;5033718;28;20033;-70
2023/05/20 08:08:40;;;;;;;6.05;2.30;;;;;;;;;;5033568;28;20041;-71
2023/05/20 08:11:06;;;;;;;6.45;3.15;;;;;;;;;;5033628;28;20033;-72
2023/05/20 08:13:32;;;;;;;6.00;3.00;;;;;;;;;;5033209;28;20029;-72
2023/05/20 08:15:58;;;;;;;12.13;3.08;;;;;;;;;;5033747;28;20087;-71
2023/05/20 08:18:26;;;;;;;11.32;3.35;;;;;;;;;;5033741;28;20029;-71
2023/05/20 08:20:52;;;;;;;17.17;3.78;;;;;;;;;;5033697;28;20586;-71
2023/05/20 08:23:18;;;;;;;15.52;7.57;;;;;;;;;;5033411;28;20033;-71
2023/05/20 08:25:45;;;;;;;16.45;4.82;;;;;;;;;;5033738;28;20502;-70
2023/05/20 08:28:11;;;;;;;10.70;2.50;;;;;;;;;;5033483;28;20463;-72
2023/05/20 08:30:37;;;;;;;11.65;2.78;;;;;;;;;;5033216;28;20032;-72
2023/05/20 08:33:03;;;;;;;7.60;2.58;;;;;;;;;;5032771;28;20438;-71
2023/05/20 08:35:29;;;;;;;14.02;3.50;;;;;;;;;;5033350;28;20113;-71
2023/05/20 08:37:55;;;;;;;6.38;2.30;;;;;;;;;;5033474;28;20435;-72
2023/05/20 08:40:22;;;;;;;10.93;3.20;;;;;;;;;;5033368;28;20384;-72
2023/05/20 08:42:49;;;;;;;11.23;3.25;;;;;;;;;;5032768;28;20040;-71
2023/05/20 08:45:17;;;;;;;6.63;2.53;;;;;;;;;;5033052;28;20100;-71
2023/05/20 08:47:43;;;;;;;9.60;3.00;;;;;;;;;;5035592;28;20095;-71
2023/05/20 08:50:10;;;;;;;8.85;2.60;;;;;;;;;;5032095;28;20021;-72
2023/05/20 08:52:37;;;;;;;11.80;2.92;;;;;;;;;;5032650;28;20387;-74
2023/05/20 08:55:04;;;;;;;6.43;2.40;;;;;;;;;;5032456;28;20046;-71
2023/05/20 08:57:32;;;;;;;7.13;2.80;;;;;;;;;;5032885;28;20081;-72
2023/05/20 08:59:59;;;;;;;12.63;2.72;;;;;;;;;;5031386;28;20025;-71
2023/05/20 09:02:25;;;;;;;8.48;2.35;;;;;;;;;;5032189;28;20053;-71
2023/05/20 09:04:52;;;;;;;5.45;2.20;;;;;;;;;;5032744;28;20072;-72
2023/05/20 09:07:27;;;;;;;4.95;1.90;;;;;;;;;;5032410;28;20057;-71
2023/05/20 09:09:53;;;;;;;6.50;2.10;;;;;;;;;;5032570;28;20120;-71
2023/05/20 09:12:20;;;;;;;4.40;1.80;;;;;;;;;;5031675;28;20184;-71
2023/05/20 09:14:47;;;;;;;6.85;2.65;;;;;;;;;;5032221;28;20623;-71
2023/05/20 09:17:13;;;;;;;12.95;2.45;;;;;;;;;;5032032;28;20104;-72
2023/05/20 09:19:39;;;;;;;12.07;1.83;;;;;;;;;;5032438;28;20124;-71
2023/05/20 09:22:05;;;;;;;8.18;2.10;;;;;;;;;;5032092;28;20017;-72
2023/05/20 09:24:31;;;;;;;11.05;1.90;;;;;;;;;;5032139;28;20503;-72
2023/05/20 09:26:57;;;;;;;11.55;7.25;;;;;;;;;;5032521;28;20208;-73
2023/05/20 09:29:23;;;;;;;5.97;2.17;;;;;;;;;;5032587;28;20034;-72
2023/05/20 09:31:50;;;;;;;8.05;2.10;;;;;;;;;;5032113;28;20021;-73
2023/05/20 09:34:17;;;;;;;5.05;1.65;;;;;;;;;;5032778;28;20087;-72
2023/05/20 09:36:44;;;;;;;7.07;1.77;;;;;;;;;;5032280;28;20022;-72
2023/05/20 09:39:13;;;;;;;6.32;2.00;;;;;;;;;;5032045;28;20112;-72
2023/05/20 09:41:43;;;;;;;6.22;2.35;;;;;;;;;;5032094;28;20028;-71
2023/05/20 09:44:10;;;;;;;6.47;2.00;;;;;;;;;;5031907;28;20021;-72
2023/05/20 09:46:37;;;;;;;6.75;1.65;;;;;;;;;;5032035;28;20031;-74
2023/05/20 09:49:05;;;;;;;8.45;1.73;;;;;;;;;;5031391;28;20440;-74
2023/05/20 09:51:33;;;;;;;9.48;3.15;;;;;;;;;;5031621;28;20026;-74
2023/05/20 09:53:59;;;;;;;8.95;3.28;;;;;;;;;;5031356;28;20033;-72
2023/05/20 09:56:26;;;;;;;9.15;1.90;;;;;;;;;;5031856;28;20024;-72
2023/05/20 09:58:57;;;;;;;3.83;1.85;;;;;;;;;;5031671;28;20024;-71
2023/05/20 10:01:23;;;;;;;7.43;2.10;;;;;;;;;;5031596;28;20080;-72
2023/05/20 10:03:50;;;;;;;3.60;1.70;;;;;;;;;;5031977;28;20471;-72
2023/05/20 10:06:33;;;;;;;9.80;2.10;;;;;;;;;;5031810;28;20119;-72
2023/05/20 10:09:22;;;;;;;4.60;2.22;;;;;;;;;;5031194;28;20033;-71
2023/05/20 10:11:57;;;;;;;5.68;2.13;;;;;;;;;;5031014;28;20033;-71
2023/05/20 10:14:26;;;;;;;4.72;2.65;;;;;;;;;;5031369;28;20021;-71
2023/05/20 10:17:01;;;;;;;6.75;2.42;;;;;;;;;;5031608;28;20021;-71
2023/05/20 10:19:28;;;;;;;10.13;2.55;;;;;;;;;;5031662;28;20493;-70
2023/05/20 10:21:57;;;;;;;6.63;2.28;;;;;;;;;;5031271;28;20018;-70
2023/05/20 10:24:29;;;;;;;6.32;2.35;;;;;;;;;;5031830;28;20080;-70
2023/05/20 10:26:57;;;;;;;8.30;2.55;;;;;;;;;;5031405;28;20030;-71
2023/05/20 10:29:23;;;;;;;4.10;2.20;;;;;;;;;;5031309;28;20121;-71
2023/05/20 10:31:50;;;;;;;4.55;2.03;;;;;;;;;;5031135;28;20037;-70
2023/05/20 10:34:17;;;;;;;7.55;2.20;;;;;;;;;;5031133;28;20498;-72
2023/05/20 10:36:59;;;;;;;9.57;2.30;;;;;;;;;;5031681;28;20029;-71
2023/05/20 10:39:27;;;;;;;4.32;2.03;;;;;;;;;;5032221;28;20471;-72
2023/05/20 10:41:53;;;;;;;5.25;1.90;;;;;;;;;;5032054;28;20532;-71
2023/05/20 10:44:19;;;;;;;5.07;2.53;;;;;;;;;;5031925;28;20488;-71
2023/05/20 10:46:45;;;;;;;5.53;2.00;;;;;;;;;;5031449;28;20025;-70
2023/05/20 10:49:21;;;;;;;7.43;2.00;;;;;;;;;;5030062;28;20037;-72
2023/05/20 10:51:47;;;;;;;7.07;2.40;;;;;;;;;;5031082;28;20083;-71
2023/05/20 10:54:13;;;;;;;8.38;3.75;;;;;;;;;;5031310;28;20033;-71
2023/05/20 10:56:40;;;;;;;10.32;2.67;;;;;;;;;;5031359;28;20022;-72
2023/05/20 10:59:06;;;;;;;8.63;2.60;;;;;;;;;;5031206;28;20429;-71
2023/05/20 11:01:33;;;;;;;8.68;2.60;;;;;;;;;;5031617;28;20432;-71
2023/05/20 11:04:00;;;;;;;12.95;3.28;;;;;;;;;;5031015;28;20124;-71
2023/05/20 11:06:27;;;;;;;7.07;2.28;;;;;;;;;;5031283;28;20094;-72
2023/05/20 11:08:53;;;;;;;6.78;2.63;;;;;;;;;;5031237;28;20044;-71
2023/05/20 11:11:20;;;;;;;9.13;2.70;;;;;;;;;;5030857;28;20037;-71
2023/05/20 11:13:50;;;;;;;11.50;2.55;;;;;;;;;;5030959;28;20022;-71
2023/05/20 11:16:16;;;;;;;8.15;3.30;;;;;;;;;;5031243;28;20459;-73
2023/05/20 11:18:42;;;;;;;7.43;2.50;;;;;;;;;;5031055;28;20022;-73
2023/05/20 11:21:08;;;;;;;5.43;2.55;;;;;;;;;;5031294;28;20412;-71
2023/05/20 11:23:34;;;;;;;10.25;2.47;;;;;;;;;;5031544;28;20053;-71
2023/05/20 11:26:01;;;;;;;8.65;2.53;;;;;;;;;;5034746;28;20057;-71
2023/05/20 11:28:27;;;;;;;7.88;2.72;;;;;;;;;;5034384;28;20032;-71
2023/05/20 11:30:53;;;;;;;10.68;3.20;;;;;;;;;;5031952;28;20026;-71
2023/05/20 11:33:19;;;;;;;8.90;2.88;;;;;;;;;;5034276;28;20446;-75
2023/05/20 11:35:45;;;;;;;7.43;3.05;;;;;;;;;;5034590;28;20083;-71
2023/05/20 11:38:11;;;;;;;11.65;3.03;;;;;;;;;;5034291;28;20034;-70
2023/05/20 11:40:37;;;;;;;10.30;2.40;;;;;;;;;;5033970;28;20068;-72
2023/05/20 11:43:03;;;;;;;5.10;2.67;;;;;;;;;;5034081;28;20049;-71
2023/05/20 11:45:42;;;;;;;7.68;2.17;;;;;;;;;;5034274;28;20083;-71
2023/05/20 11:48:09;;;;;;;5.68;2.67;;;;;;;;;;5034068;28;20029;-71
2023/05/20 11:50:38;;;;;;;10.23;2.45;;;;;;;;;;5033840;28;20033;-71
2023/05/20 11:53:04;;;;;;;8.63;2.88;;;;;;;;;;5033645;28;20026;-70
2023/05/20 11:55:32;;;;;;;8.32;2.30;;;;;;;;;;5033949;28;20041;-71
2023/05/20 11:57:58;;;;;;;6.95;2.40;;;;;;;;;;5034160;28;20013;-71
2023/05/20 12:00:24;;;;;;;9.23;2.70;;;;;;;;;;5033877;28;20029;-71
2023/05/20 12:02:50;;;;;;;5.85;2.53;;;;;;;;;;5033432;28;20032;-70
2023/05/20 12:05:16;;;;;;;6.75;2.53;;;;;;;;;;5033641;28;20399;-71
2023/05/20 12:07:42;;;;;;;6.90;2.22;;;;;;;;;;5033323;28;20096;-71
2023/05/20 12:10:09;;;;;;;10.00;2.20;;;;;;;;;;5033461;28;20103;-72
2023/05/20 12:12:36;;;;;;;6.60;2.40;;;;;;;;;;5032872;28;20087;-73
2023/05/20 12:15:02;;;;;;;11.90;4.95;;;;;;;;;;5033366;28;20025;-70
2023/05/20 12:17:28;;;;;;;13.00;5.60;;;;;;;;;;5033716;28;20028;-71
2023/05/20 12:19:54;;;;;;;9.73;2.65;;;;;;;;;;5033747;28;20426;-74
2023/05/20 12:22:20;;;;;;;8.63;2.92;;;;;;;;;;5034122;28;20025;-75
2023/05/20 12:24:46;;;;;;;8.35;2.35;;;;;;;;;;5035896;28;20483;-76
2023/05/20 12:27:12;;;;;;;5.82;2.33;;;;;;;;;;5032725;28;20108;-75
2023/05/20 12:29:38;;;;;;;9.88;2.53;;;;;;;;;;5034140;28;20025;-76
2023/05/20 12:32:04;;;;;;;7.05;2.58;;;;;;;;;;5033148;28;20025;-74
2023/05/20 12:34:31;;;;;;;4.07;2.40;;;;;;;;;;5032986;28;20164;-73
2023/05/20 12:36:57;;;;;;;12.02;2.70;;;;;;;;;;5033423;28;20022;-72
2023/05/20 12:39:23;;;;;;;10.30;2.55;;;;;;;;;;5033331;28;20021;-73
2023/05/20 12:41:49;;;;;;;6.38;2.40;;;;;;;;;;5031624;28;20029;-76
2023/05/20 12:44:15;;;;;;;8.38;2.95;;;;;;;;;;5033262;28;20475;-74
2023/05/20 12:46:41;;;;;;;11.20;2.78;;;;;;;;;;5032110;28;20084;-75
2023/05/20 12:49:07;;;;;;;5.07;2.30;;;;;;;;;;5033149;28;20025;-76
2023/05/20 12:51:33;;;;;;;5.22;2.58;;;;;;;;;;5033087;28;20026;-77
2023/05/20 12:53:59;;;;;;;7.50;2.65;;;;;;;;;;5033184;28;20467;-72
2023/05/20 12:56:26;;;;;;;9.75;2.63;;;;;;;;;;5033318;28;20091;-76
2023/05/20 12:58:52;;;;;;;9.00;2.83;;;;;;;;;;5037118;28;20014;-76
2023/05/20 13:01:18;;;;;;;10.15;2.88;;;;;;;;;;5032923;28;20037;-73
2023/05/20 13:03:44;;;;;;;6.22;2.70;;;;;;;;;;5032599;28;20036;-72
2023/05/20 13:06:10;;;;;;;11.07;2.60;;;;;;;;;;5033150;28;20026;-72
2023/05/20 13:08:36;;;;;;;9.15;2.50;;;;;;;;;;5032573;28;20041;-72
2023/05/20 13:11:02;;;;;;;9.10;2.75;;;;;;;;;;5032702;28;20104;-74
2023/05/20 13:13:28;;;;;;;8.93;2.67;;;;;;;;;;5032443;28;20027;-75
2023/05/20 13:15:54;;;;;;;4.97;2.60;;;;;;;;;;5033412;28;20021;-75
2023/05/20 13:18:20;;;;;;;8.18;2.90;;;;;;;;;;5031343;28;20056;-74
2023/05/20 13:20:46;;;;;;;6.30;2.40;;;;;;;;;;5033479;28;20053;-74
2023/05/20 13:23:12;;;;;;;9.82;4.78;;;;;;;;;;5035777;28;20048;-79
2023/05/20 13:25:38;;;;;;;12.75;3.10;;;;;;;;;;5033906;28;20025;-77
2023/05/20 13:28:05;;;;;;;9.02;3.40;;;;;;;;;;5033168;28;20049;-74
2023/05/20 13:30:31;;;;;;;7.28;2.85;;;;;;;;;;5032261;28;20083;-73
2023/05/20 13:32:57;;;;;;;6.55;2.95;;;;;;;;;;5032039;28;20022;-72
2023/05/20 13:35:23;;;;;;;12.30;3.35;;;;;;;;;;5031708;28;20031;-75
2023/05/20 13:37:49;;;;;;;9.15;3.10;;;;;;;;;;5033026;28;20111;-75
2023/05/20 13:40:16;;;;;;;12.43;3.35;;;;;;;;;;5032099;28;20032;-73
2023/05/20 13:42:43;;;;;;;7.93;2.85;;;;;;;;;;5033910;28;20049;-76
2023/05/20 13:45:09;;;;;;;8.63;3.22;;;;;;;;;;5033351;28;20026;-71
2023/05/20 13:47:35;;;;;;;11.35;3.10;;;;;;;;;;5031556;28;20033;-71
2023/05/20 13:50:01;;;;;;;7.82;3.08;;;;;;;;;;5031776;28;20052;-71
2023/05/20 13:52:27;;;;;;;11.43;2.75;;;;;;;;;;5031989;28;20091;-72
2023/05/20 13:54:53;;;;;;;7.32;2.50;;;;;;;;;;5032043;28;20021;-71
2023/05/20 13:57:19;;;;;;;6.45;2.63;;;;;;;;;;5031961;28;20037;-72
2023/05/20 13:59:45;;;;;;;7.57;2.28;;;;;;;;;;5031881;28;20097;-71
2023/05/20 14:02:11;;;;;;;8.88;2.55;;;;;;;;;;5031463;28;20440;-71
2023/05/20 14:04:38;;;;;;;6.18;2.40;;;;;;;;;;5032490;28;20079;-71
2023/05/20 14:07:07;;;;;;;4.95;2.50;;;;;;;;;;5032594;28;20079;-72
2023/05/20 14:09:33;;;;;;;12.30;3.35;;;;;;;;;;5031870;28;20068;-74
2023/05/20 14:11:59;;;;;;;6.88;3.08;;;;;;;;;;5031456;28;20025;-76
2023/05/20 14:14:25;;;;;;;9.43;3.08;;;;;;;;;;5034595;28;20025;-75
2023/05/20 14:16:51;;;;;;;23.50;12.35;;;;;;;;;;5041737;28;20042;-75
2023/05/20 14:19:17;;;;;;;9.10;3.45;;;;;;;;;;5035568;28;20026;-75
2023/05/20 14:21:43;;;;;;;8.52;2.78;;;;;;;;;;5034659;28;20025;-74
2023/05/20 14:24:09;;;;;;;6.35;2.67;;;;;;;;;;5033060;28;20033;-75
2023/05/20 14:26:35;;;;;;;7.22;2.80;;;;;;;;;;5033897;28;20035;-76
2023/05/20 14:29:01;;;;;;;9.57;2.92;;;;;;;;;;5036546;28;20040;-77
2023/05/20 14:31:27;;;;;;;5.53;2.90;;;;;;;;;;5034302;28;20125;-77
2023/05/20 14:33:53;;;;;;;6.15;2.40;;;;;;;;;;5053384;28;20025;-77